Time;durP1;ratioP1;P1;durP2;ratioP2;P2;SDS_P1;SDS_P2;PMS_P1;PMS_P2;Temp;Humidity;BMP_temperature;BMP_pressure;BME280_temperature;BME280_humidity;BME280_pressure;Samples;Min_cycle;Max_cycle;Signal;HPM_P1;HPM_P2
2022/06/24 00:00:00;;;;;;;4.57;2.40;;;22.40;53.90;;;;;;5095766;28;20438;-76
2022/06/24 00:02:26;;;;;;;3.78;2.42;;;22.30;53.90;;;;;;5095893;28;20040;-76
2022/06/24 00:04:56;;;;;;;3.42;2.42;;;22.40;54.50;;;;;;5095480;28;20485;-76
2022/06/24 00:07:22;;;;;;;7.75;2.47;;;22.30;54.80;;;;;;5095709;28;20044;-76
2022/06/24 00:09:48;;;;;;;5.07;2.90;;;22.30;54.30;;;;;;5095640;28;20028;-76
2022/06/24 00:12:18;;;;;;;3.38;2.70;;;22.40;54.40;;;;;;5094576;28;20117;-76
2022/06/24 00:14:55;;;;;;;2.65;2.08;;;22.30;54.10;;;;;;5095617;28;20036;-76
2022/06/24 00:17:20;;;;;;;3.50;2.58;;;22.30;55.10;;;;;;5094538;28;20150;-76
2022/06/24 00:19:55;;;;;;;2.38;2.10;;;22.10;56.50;;;;;;5095505;28;20118;-76
2022/06/24 00:22:21;;;;;;;4.78;2.78;;;22.10;57.20;;;;;;5095265;28;20408;-76
2022/06/24 00:24:47;;;;;;;6.22;3.28;;;22.00;56.40;;;;;;5095361;28;20461;-76
2022/06/24 00:27:22;;;;;;;4.65;2.63;;;21.90;55.60;;;;;;5095454;28;20119;-76
2022/06/24 00:29:49;;;;;;;5.85;2.35;;;21.90;55.20;;;;;;5095736;28;20032;-76
2022/06/24 00:32:15;;;;;;;4.93;2.65;;;21.90;55.10;;;;;;5093991;28;20039;-76
2022/06/24 00:34:41;;;;;;;3.90;2.70;;;21.90;54.80;;;;;;5095125;28;20036;-76
2022/06/24 00:37:23;;;;;;;4.03;2.55;;;21.90;54.80;;;;;;5095183;28;20423;-76
2022/06/24 00:39:50;;;;;;;5.07;2.83;;;21.90;54.50;;;;;;5095298;28;20132;-76
2022/06/24 00:42:18;;;;;;;6.88;2.60;;;21.90;54.30;;;;;;5095138;28;20111;-76
2022/06/24 00:44:56;;;;;;;4.75;2.50;;;22.00;54.30;;;;;;5095020;28;20409;-76
2022/06/24 00:47:22;;;;;;;2.70;2.42;;;22.00;54.00;;;;;;5094948;28;20036;-76
2022/06/24 00:49:50;;;;;;;5.43;2.78;;;22.00;54.10;;;;;;5095104;28;20036;-76
2022/06/24 00:52:16;;;;;;;2.75;2.13;;;22.00;54.00;;;;;;5095043;28;20040;-76
2022/06/24 00:54:43;;;;;;;5.60;2.75;;;22.00;53.90;;;;;;5093482;28;20044;-75
2022/06/24 00:57:10;;;;;;;3.92;2.38;;;22.00;54.00;;;;;;5094908;28;20043;-75
2022/06/24 00:59:36;;;;;;;4.32;2.58;;;22.00;55.30;;;;;;5093477;28;20115;-76
2022/06/24 01:02:06;;;;;;;3.88;2.75;;;21.90;55.00;;;;;;5095061;28;20474;-75
2022/06/24 01:04:33;;;;;;;4.15;2.85;;;21.90;54.70;;;;;;5094692;28;20413;-75
2022/06/24 01:06:59;;;;;;;3.55;2.72;;;21.90;54.60;;;;;;5076334;28;20112;-76
2022/06/24 01:09:24;;;;;;;4.53;2.58;;;21.90;54.70;;;;;;5094645;28;20127;-76
2022/06/24 01:11:51;;;;;;;5.10;2.75;;;21.80;54.90;;;;;;5094649;28;20080;-76
2022/06/24 01:14:17;;;;;;;4.20;2.25;;;21.80;55.30;;;;;;5094266;28;20562;-76
2022/06/24 01:16:43;;;;;;;5.22;2.90;;;21.70;55.70;;;;;;5094054;28;20111;-76
2022/06/24 01:19:12;;;;;;;4.82;2.75;;;21.70;55.40;;;;;;5094478;28;20085;-76
2022/06/24 01:21:44;;;;;;;3.83;3.10;;;21.60;55.30;;;;;;5093019;28;20032;-75
2022/06/24 01:24:16;;;;;;;5.75;3.13;;;21.60;55.30;;;;;;5116663;22;20132;-68
2022/06/24 01:26:47;;;;;;;6.03;2.70;;;21.70;55.30;;;;;;5093202;28;20047;-68
2022/06/24 01:29:14;;;;;;;5.93;2.45;;;21.60;55.30;;;;;;5093830;28;20485;-68
2022/06/24 01:31:40;;;;;;;4.47;2.88;;;21.60;55.40;;;;;;5092938;28;20333;-68
2022/06/24 01:34:07;;;;;;;6.80;3.42;;;21.60;55.40;;;;;;5093931;28;20067;-68
2022/06/24 01:36:33;;;;;;;5.60;3.17;;;21.60;55.60;;;;;;5093585;28;20047;-68
2022/06/24 01:38:59;;;;;;;5.22;3.00;;;21.60;55.60;;;;;;5093870;28;20039;-68
2022/06/24 01:41:24;;;;;;;7.85;2.90;;;21.60;56.00;;;;;;5093738;28;20063;-68
2022/06/24 01:43:50;;;;;;;4.80;2.90;;;21.60;57.10;;;;;;5093514;28;20119;-68
2022/06/24 01:46:15;;;;;;;4.40;3.03;;;21.50;59.10;;;;;;5093420;28;20039;-68
2022/06/24 01:48:41;;;;;;;4.55;3.03;;;21.50;60.70;;;;;;5093732;28;20516;-68
2022/06/24 01:51:09;;;;;;;4.15;2.70;;;21.40;61.50;;;;;;5093553;28;20039;-68
2022/06/24 01:53:35;;;;;;;4.68;2.92;;;21.30;61.90;;;;;;5093449;28;20097;-68
2022/06/24 01:56:01;;;;;;;4.03;3.00;;;21.20;62.90;;;;;;5093011;28;20044;-68
2022/06/24 01:58:27;;;;;;;4.43;2.83;;;21.20;63.90;;;;;;5093295;28;20115;-68
2022/06/24 02:00:52;;;;;;;3.67;2.90;;;21.10;65.00;;;;;;5093187;28;20123;-68
2022/06/24 02:03:18;;;;;;;5.25;3.20;;;21.00;65.70;;;;;;5093345;28;20044;-68
2022/06/24 02:05:46;;;;;;;5.50;3.13;;;20.90;65.90;;;;;;5092932;28;20106;-68
2022/06/24 02:08:12;;;;;;;5.55;3.67;;;20.80;65.70;;;;;;5093268;28;20383;-68
2022/06/24 02:13:29;;;;;;;4.40;3.35;;;20.70;65.50;;;;;;5091696;28;20489;-68
2022/06/24 02:15:56;;;;;;;5.93;3.13;;;20.70;65.50;;;;;;5092752;28;20573;-68
2022/06/24 02:18:23;;;;;;;6.22;3.40;;;20.70;65.80;;;;;;5093055;28;20285;-68
2022/06/24 02:20:49;;;;;;;4.78;3.17;;;20.60;66.00;;;;;;5092956;28;20036;-68
2022/06/24 02:23:15;;;;;;;5.85;3.72;;;20.60;66.20;;;;;;5092618;28;20046;-68
2022/06/24 02:25:41;;;;;;;6.72;3.90;;;20.50;66.40;;;;;;5092762;28;20039;-68
2022/06/24 02:28:07;;;;;;;6.68;3.45;;;20.50;66.10;;;;;;5092992;28;20032;-68
2022/06/24 02:30:32;;;;;;;5.80;3.95;;;20.40;66.20;;;;;;5092851;28;20071;-68
2022/06/24 02:32:58;;;;;;;6.72;4.03;;;20.40;66.40;;;;;;5092669;28;20119;-68
2022/06/24 02:35:24;;;;;;;5.45;4.00;;;20.30;66.60;;;;;;5092310;28;20043;-68
2022/06/24 02:37:49;;;;;;;5.50;3.92;;;20.20;66.80;;;;;;5092510;28;20052;-68
2022/06/24 02:42:59;;;;;;;5.90;3.50;;;20.20;67.10;;;;;;5092605;28;20237;-68
2022/06/24 02:45:25;;;;;;;6.38;3.90;;;20.10;67.30;;;;;;5092212;28;20119;-68
2022/06/24 02:47:50;;;;;;;9.57;4.35;;;20.10;67.40;;;;;;5092466;28;20063;-68
2022/06/24 02:50:16;;;;;;;5.88;3.72;;;20.10;67.80;;;;;;5092334;28;20067;-68
2022/06/24 02:52:42;;;;;;;6.85;3.70;;;20.10;67.90;;;;;;5092248;28;20618;-68
2022/06/24 02:55:08;;;;;;;5.55;3.58;;;20.10;68.00;;;;;;5090710;28;20139;-68
2022/06/24 02:57:33;;;;;;;4.88;3.72;;;20.10;68.20;;;;;;5092426;28;20093;-68
2022/06/24 02:59:59;;;;;;;6.68;3.80;;;20.10;68.00;;;;;;5092335;28;20515;-68
2022/06/24 03:02:24;;;;;;;4.63;3.70;;;20.10;68.00;;;;;;5090984;28;20519;-68
2022/06/24 03:04:50;;;;;;;6.63;3.83;;;20.10;68.00;;;;;;5090367;28;20416;-68
2022/06/24 03:07:16;;;;;;;4.50;3.80;;;20.10;67.70;;;;;;5092092;28;20222;-68
2022/06/24 03:09:41;;;;;;;4.72;3.53;;;20.00;67.80;;;;;;5092417;28;20039;-68
2022/06/24 03:12:07;;;;;;;5.00;3.95;;;20.00;67.90;;;;;;5090841;28;20043;-68
2022/06/24 03:14:33;;;;;;;6.63;4.00;;;20.00;67.70;;;;;;5091829;28;20420;-68
2022/06/24 03:16:58;;;;;;;5.68;3.95;;;20.00;67.70;;;;;;5090462;28;20040;-68
2022/06/24 03:19:24;;;;;;;5.05;3.90;;;20.00;67.70;;;;;;5090593;28;20474;-68
2022/06/24 03:21:50;;;;;;;6.32;3.83;;;20.00;67.60;;;;;;5091330;28;20058;-68
2022/06/24 03:24:16;;;;;;;4.70;3.63;;;20.10;67.70;;;;;;5091750;28;20089;-68
2022/06/24 03:26:41;;;;;;;6.82;4.05;;;20.10;68.10;;;;;;5091467;28;20485;-68
2022/06/24 03:29:07;;;;;;;4.75;3.50;;;20.10;68.00;;;;;;5090628;28;20123;-68
2022/06/24 03:31:32;;;;;;;9.55;4.22;;;20.10;67.90;;;;;;5091875;28;20044;-68
2022/06/24 03:33:58;;;;;;;6.47;3.90;;;20.10;67.80;;;;;;5091560;28;20036;-68
2022/06/24 03:36:24;;;;;;;7.47;4.47;;;20.10;67.90;;;;;;5091666;28;20061;-68
2022/06/24 03:38:50;;;;;;;6.78;4.25;;;20.10;67.80;;;;;;5091899;28;20043;-68
2022/06/24 03:41:16;;;;;;;5.10;3.72;;;20.10;67.60;;;;;;5091695;28;20431;-68
2022/06/24 03:43:41;;;;;;;4.13;3.38;;;20.10;67.50;;;;;;5091700;28;20044;-68
2022/06/24 03:46:07;;;;;;;6.53;4.40;;;20.10;67.30;;;;;;5090209;28;20116;-68
2022/06/24 03:48:33;;;;;;;8.35;4.40;;;20.10;67.30;;;;;;5091564;28;20061;-68
2022/06/24 03:50:58;;;;;;;5.20;4.03;;;20.20;67.20;;;;;;5091540;28;20529;-68
2022/06/24 03:53:24;;;;;;;4.95;3.83;;;20.10;67.30;;;;;;5091654;28;20052;-68
2022/06/24 03:55:50;;;;;;;7.07;4.20;;;20.20;68.00;;;;;;5091390;28;20044;-68
2022/06/24 03:58:19;;;;;;;4.55;3.95;;;20.20;68.10;;;;;;5091660;28;20051;-68
2022/06/24 04:00:45;;;;;;;10.60;4.60;;;20.20;68.30;;;;;;5091530;28;20051;-68
2022/06/24 04:03:11;;;;;;;7.45;4.82;;;20.20;69.30;;;;;;5090091;28;20067;-68
2022/06/24 04:05:37;;;;;;;6.38;4.40;;;20.20;70.30;;;;;;5091048;28;20093;-68
2022/06/24 04:08:03;;;;;;;6.47;4.43;;;20.20;70.10;;;;;;5091554;28;20081;-68
2022/06/24 04:10:28;;;;;;;9.68;4.72;;;20.20;69.90;;;;;;5091606;28;20036;-68
2022/06/24 04:12:54;;;;;;;8.02;4.93;;;20.20;69.30;;;;;;5091246;28;20512;-68
2022/06/24 04:15:20;;;;;;;9.18;4.57;;;20.30;68.90;;;;;;5091123;28;20040;-68
2022/06/24 04:17:49;;;;;;;6.32;4.55;;;20.30;68.90;;;;;;5091252;28;20036;-68
2022/06/24 04:20:17;;;;;;;7.65;4.63;;;20.30;68.90;;;;;;5091582;28;20421;-68
2022/06/24 04:22:43;;;;;;;8.57;4.60;;;20.30;69.00;;;;;;5091372;28;20040;-68
2022/06/24 04:25:10;;;;;;;6.03;4.30;;;20.40;68.80;;;;;;5090875;28;20044;-68
2022/06/24 04:27:36;;;;;;;5.35;3.97;;;20.40;69.20;;;;;;5091416;28;20043;-68
2022/06/24 04:30:03;;;;;;;6.50;4.00;;;20.40;69.00;;;;;;5090157;28;20394;-68
2022/06/24 04:32:29;;;;;;;6.28;4.60;;;20.50;69.10;;;;;;5091282;28;20448;-68
2022/06/24 04:34:55;;;;;;;5.07;4.57;;;20.50;69.30;;;;;;5094455;28;20040;-68
2022/06/24 04:37:20;;;;;;;7.15;4.95;;;20.50;69.40;;;;;;5095166;28;20040;-68
2022/06/24 04:39:46;;;;;;;7.35;4.35;;;20.60;69.70;;;;;;5095014;28;20454;-68
2022/06/24 04:42:12;;;;;;;6.72;4.50;;;20.70;69.80;;;;;;5095038;28;20048;-68
2022/06/24 04:44:37;;;;;;;5.85;3.97;;;20.80;70.20;;;;;;5093346;28;20481;-68
2022/06/24 04:47:03;;;;;;;6.50;4.60;;;20.80;70.30;;;;;;5094371;28;20111;-68
2022/06/24 04:49:28;;;;;;;4.45;4.05;;;20.90;70.20;;;;;;5094965;28;20043;-68
2022/06/24 04:51:54;;;;;;;5.63;4.30;;;21.10;70.30;;;;;;5094800;28;20337;-68
2022/06/24 04:54:20;;;;;;;9.07;4.50;;;21.20;70.20;;;;;;5094707;28;20106;-68
2022/06/24 04:56:46;;;;;;;7.20;4.80;;;21.20;70.30;;;;;;5094416;28;20404;-68
2022/06/24 04:59:12;;;;;;;7.78;4.32;;;21.10;70.50;;;;;;5093283;28;20040;-70
2022/06/24 05:01:37;;;;;;;6.18;4.50;;;21.10;70.50;;;;;;5094333;28;20040;-69
2022/06/24 05:04:03;;;;;;;4.50;4.07;;;21.00;71.20;;;;;;5094386;28;20032;-68
2022/06/24 05:06:29;;;;;;;6.43;4.32;;;21.10;71.40;;;;;;5094146;28;20040;-69
2022/06/24 05:08:55;;;;;;;7.40;3.78;;;21.10;71.50;;;;;;5094495;28;20032;-69
2022/06/24 05:11:21;;;;;;;5.55;3.92;;;21.20;72.10;;;;;;5094232;28;20119;-69
2022/06/24 05:13:47;;;;;;;6.95;3.63;;;21.40;77.50;;;;;;5090893;28;20032;-69
2022/06/24 05:16:12;;;;;;;6.35;4.03;;;21.50;77.90;;;;;;5084207;28;20036;-69
2022/06/24 05:18:38;;;;;;;7.60;4.88;;;21.50;77.30;;;;;;5074075;28;20040;-69
2022/06/24 05:21:03;;;;;;;8.38;4.82;;;21.50;77.50;;;;;;5073845;28;20059;-69
2022/06/24 05:23:29;;;;;;;6.22;4.55;;;21.60;78.40;;;;;;5073798;28;20063;-69
2022/06/24 05:25:55;;;;;;;7.50;5.25;;;21.60;79.70;;;;;;5073509;28;20048;-69
2022/06/24 05:28:21;;;;;;;9.48;4.53;;;21.50;81.60;;;;;;5073726;28;20401;-69
2022/06/24 05:30:46;;;;;;;5.75;5.15;;;21.60;82.30;;;;;;5073550;28;20068;-69
2022/06/24 05:33:12;;;;;;;9.00;5.10;;;21.60;82.80;;;;;;5073741;28;20135;-71
2022/06/24 05:35:37;;;;;;;4.78;4.20;;;21.60;83.40;;;;;;5073438;28;20044;-69
2022/06/24 05:38:03;;;;;;;5.35;4.85;;;21.50;85.70;;;;;;5073702;28;20088;-69
2022/06/24 05:40:29;;;;;;;5.93;4.70;;;21.50;85.10;;;;;;5073547;28;20048;-70
2022/06/24 05:42:54;;;;;;;5.57;4.28;;;21.70;83.90;;;;;;5073170;28;20044;-70
2022/06/24 05:45:21;;;;;;;5.40;4.90;;;22.10;84.20;;;;;;5072099;28;20044;-70
2022/06/24 05:47:46;;;;;;;7.28;4.90;;;22.20;83.30;;;;;;5072266;28;20045;-70
2022/06/24 05:50:12;;;;;;;6.47;4.43;;;22.50;81.70;;;;;;5073693;28;20147;-69
2022/06/24 05:55:21;;;;;;;5.70;5.07;;;22.60;78.40;;;;;;5073259;28;20068;-70
2022/06/24 05:57:47;;;;;;;7.50;5.28;;;22.40;78.20;;;;;;5071873;28;20430;-70
2022/06/24 06:00:13;;;;;;;10.07;5.45;;;22.30;81.20;;;;;;5071909;28;20040;-70
2022/06/24 06:02:38;;;;;;;5.75;5.22;;;22.00;82.30;;;;;;5073308;28;20044;-70
2022/06/24 06:05:04;;;;;;;6.35;4.97;;;21.90;85.60;;;;;;5072615;28;20513;-70
2022/06/24 06:07:30;;;;;;;7.20;5.53;;;21.70;87.10;;;;;;5073082;28;20128;-69
2022/06/24 06:09:56;;;;;;;10.45;6.50;;;21.60;89.80;;;;;;5071619;28;20089;-70
2022/06/24 06:12:22;;;;;;;12.60;7.68;;;21.30;92.90;;;;;;5073338;28;20044;-69
2022/06/24 06:14:47;;;;;;;12.70;8.10;;;20.80;96.30;;;;;;5072439;28;20440;-70
2022/06/24 06:17:13;;;;;;;15.35;8.75;;;20.60;97.80;;;;;;5071535;28;20098;-70
2022/06/24 06:19:39;;;;;;;15.70;9.63;;;20.50;99.90;;;;;;5072941;28;20032;-69
2022/06/24 06:22:04;;;;;;;13.75;9.38;;;20.30;99.90;;;;;;5072769;28;20041;-69
2022/06/24 06:24:30;;;;;;;10.82;8.73;;;20.10;99.90;;;;;;5072391;28;20191;-70
2022/06/24 06:26:57;;;;;;;15.13;9.25;;;20.20;99.90;;;;;;5072189;28;20460;-69
2022/06/24 06:29:23;;;;;;;14.10;8.75;;;20.10;99.90;;;;;;5071091;28;20165;-70
2022/06/24 06:31:50;;;;;;;14.52;10.57;;;20.00;99.90;;;;;;5072448;28;20072;-69
2022/06/24 06:34:16;;;;;;;16.52;11.65;;;19.90;99.90;;;;;;5072507;28;20438;-69
2022/06/24 06:36:42;;;;;;;12.85;10.40;;;19.80;99.90;;;;;;5072147;28;20115;-70
2022/06/24 06:39:07;;;;;;;14.68;11.70;;;19.80;99.90;;;;;;5072327;28;20048;-70
2022/06/24 06:41:33;;;;;;;16.70;12.43;;;19.80;99.90;;;;;;5072250;28;20041;-69
2022/06/24 06:43:59;;;;;;;15.27;11.75;;;19.90;99.90;;;;;;5070809;28;20051;-69
2022/06/24 06:46:24;;;;;;;13.82;12.10;;;19.90;99.90;;;;;;5072058;28;20094;-70
2022/06/24 06:48:50;;;;;;;16.75;12.63;;;19.80;99.90;;;;;;5070924;28;20048;-70
2022/06/24 06:51:15;;;;;;;16.40;13.35;;;19.80;99.90;;;;;;5072318;28;20044;-69
2022/06/24 06:53:41;;;;;;;14.40;12.32;;;19.80;99.90;;;;;;5072396;28;20028;-69
2022/06/24 06:56:06;;;;;;;14.32;12.30;;;19.80;99.90;;;;;;5071929;28;20048;-69
2022/06/24 06:58:32;;;;;;;19.15;13.43;;;19.70;99.90;;;;;;5070600;28;20040;-69
2022/06/24 07:00:57;;;;;;;14.68;12.98;;;19.80;99.90;;;;;;5072115;28;20032;-69
2022/06/24 07:03:23;;;;;;;15.85;13.57;;;19.70;99.90;;;;;;5070677;28;20033;-69
2022/06/24 07:05:49;;;;;;;18.50;14.57;;;19.70;99.90;;;;;;5071673;28;20036;-69
2022/06/24 07:08:15;;;;;;;18.38;15.10;;;19.70;99.90;;;;;;5071927;28;20072;-70
2022/06/24 07:10:42;;;;;;;20.70;15.57;;;19.60;99.90;;;;;;5071816;28;20032;-69
2022/06/24 07:13:08;;;;;;;22.58;16.67;;;19.60;99.90;;;;;;5070428;28;20097;-70
2022/06/24 07:15:34;;;;;;;25.08;17.10;;;19.50;99.90;;;;;;5071720;28;20048;-70
2022/06/24 07:18:00;;;;;;;23.25;17.40;;;19.50;99.90;;;;;;5070490;28;20051;-70
2022/06/24 07:20:25;;;;;;;18.67;16.67;;;19.60;99.90;;;;;;5070645;28;20036;-69
2022/06/24 07:22:51;;;;;;;23.60;18.17;;;19.50;99.90;;;;;;5071528;28;20115;-70
2022/06/24 07:25:17;;;;;;;22.90;16.70;;;19.50;99.90;;;;;;5128551;22;20036;-78
2022/06/24 07:27:42;;;;;;;20.58;15.48;;;19.50;99.90;;;;;;5094454;28;20051;-78
2022/06/24 07:30:08;;;;;;;20.75;16.70;;;19.40;99.90;;;;;;5111418;28;20031;-78
2022/06/24 07:32:34;;;;;;;27.52;17.42;;;19.50;99.90;;;;;;5111468;28;20035;-78
2022/06/24 07:34:59;;;;;;;24.25;16.92;;;19.60;99.90;;;;;;5110923;28;20081;-78
2022/06/24 07:37:25;;;;;;;20.58;17.13;;;19.40;99.90;;;;;;5111089;28;20085;-78
2022/06/24 07:39:50;;;;;;;22.85;16.65;;;19.50;99.90;;;;;;5111243;28;20084;-78
2022/06/24 07:42:16;;;;;;;19.85;17.75;;;19.60;99.90;;;;;;5112183;28;20039;-78
2022/06/24 07:44:43;;;;;;;22.70;17.05;;;19.60;99.90;;;;;;5093871;28;20420;-78
2022/06/24 07:47:09;;;;;;;23.42;18.17;;;19.60;99.90;;;;;;5110848;28;20043;-78
2022/06/24 07:49:35;;;;;;;20.02;16.92;;;19.60;99.90;;;;;;5111187;28;20036;-78
2022/06/24 07:52:01;;;;;;;19.88;17.23;;;19.80;99.90;;;;;;5111003;28;20477;-78
2022/06/24 07:54:26;;;;;;;21.23;17.35;;;19.60;99.90;;;;;;5110687;28;20122;-78
2022/06/24 07:56:58;;;;;;;23.90;19.25;;;19.80;99.90;;;;;;5111238;28;20133;-78
2022/06/24 07:59:25;;;;;;;25.33;17.42;;;19.80;99.90;;;;;;5112466;28;20145;-78
2022/06/24 08:01:52;;;;;;;19.30;16.05;;;19.80;99.90;;;;;;5111987;28;20511;-77
2022/06/24 08:04:18;;;;;;;18.02;15.00;;;19.70;99.90;;;;;;5111085;28;20305;-77
2022/06/24 08:06:46;;;;;;;21.00;14.18;;;19.90;99.90;;;;;;5093469;28;20044;-78
2022/06/24 08:09:21;;;;;;;25.63;13.70;;;19.90;99.90;;;;;;5113310;28;20043;-78
2022/06/24 08:11:50;;;;;;;18.17;11.85;;;19.90;99.90;;;;;;5114795;28;20084;-78
2022/06/24 08:14:16;;;;;;;17.58;11.20;;;19.90;99.90;;;;;;5114721;28;20031;-78
2022/06/24 08:16:42;;;;;;;14.32;11.10;;;20.00;99.90;;;;;;5097534;28;20515;-78
2022/06/24 08:19:11;;;;;;;18.30;12.40;;;20.20;99.90;;;;;;5097713;28;20040;-78
2022/06/24 08:21:38;;;;;;;17.23;13.07;;;20.10;99.90;;;;;;5097546;28;20042;-78
2022/06/24 08:24:04;;;;;;;20.27;11.63;;;20.30;99.90;;;;;;5114753;28;20039;-78
2022/06/24 08:26:30;;;;;;;11.93;10.65;;;20.20;99.90;;;;;;5114593;28;20084;-78
2022/06/24 08:28:56;;;;;;;13.38;9.45;;;20.40;99.90;;;;;;5114581;28;20039;-78
2022/06/24 08:31:22;;;;;;;14.98;11.00;;;20.40;99.90;;;;;;5114899;28;20062;-78
2022/06/24 08:33:48;;;;;;;12.48;9.27;;;20.30;99.90;;;;;;5115762;28;20035;-78
2022/06/24 08:36:14;;;;;;;11.10;9.38;;;20.50;99.90;;;;;;5114024;28;20050;-77
2022/06/24 08:38:39;;;;;;;13.07;9.32;;;20.30;99.90;;;;;;5115886;28;20035;-78
2022/06/24 08:41:05;;;;;;;13.18;9.52;;;20.60;99.90;;;;;;5114294;28;20531;-79
2022/06/24 08:43:34;;;;;;;12.02;9.90;;;20.60;99.90;;;;;;5116312;28;20047;-78
2022/06/24 08:46:01;;;;;;;13.63;9.73;;;20.60;99.90;;;;;;5114230;28;20040;-78
2022/06/24 08:48:28;;;;;;;11.35;8.35;;;20.80;99.90;;;;;;5115664;28;20389;-78
2022/06/24 08:50:54;;;;;;;12.18;9.27;;;20.90;99.90;;;;;;5114420;28;20039;-78
2022/06/24 08:53:22;;;;;;;10.60;8.15;;;21.00;99.90;;;;;;5114391;28;20042;-78
2022/06/24 08:55:50;;;;;;;13.55;8.85;;;21.00;99.90;;;;;;5115315;28;20411;-78
2022/06/24 08:58:16;;;;;;;9.93;8.93;;;21.00;99.90;;;;;;5114551;28;20074;-79
2022/06/24 09:00:42;;;;;;;10.50;9.05;;;21.10;99.90;;;;;;5114635;28;20048;-79
2022/06/24 09:03:08;;;;;;;12.10;8.07;;;20.90;99.90;;;;;;5097510;28;20040;-79
2022/06/24 09:05:34;;;;;;;10.23;8.73;;;20.90;99.90;;;;;;5096937;28;20042;-78
2022/06/24 09:08:08;;;;;;;9.88;8.05;;;21.00;99.90;;;;;;5113789;28;20480;-80
2022/06/24 09:10:35;;;;;;;9.73;8.65;;;20.80;99.90;;;;;;5113924;28;20517;-78
2022/06/24 09:13:01;;;;;;;10.65;8.65;;;20.90;99.90;;;;;;5115534;28;20096;-79
2022/06/24 09:15:27;;;;;;;12.48;9.15;;;20.80;99.90;;;;;;5115334;28;20496;-79
2022/06/24 09:17:54;;;;;;;10.68;7.90;;;20.70;99.90;;;;;;5115157;28;20513;-79
2022/06/24 09:20:22;;;;;;;9.23;8.00;;;20.80;99.90;;;;;;5095295;28;20043;-79
2022/06/24 09:22:50;;;;;;;10.20;8.15;;;20.80;99.90;;;;;;5114116;28;20084;-78
2022/06/24 09:25:15;;;;;;;10.05;8.23;;;20.60;99.90;;;;;;5096254;28;20040;-79
2022/06/24 09:27:46;;;;;;;10.63;8.20;;;20.70;99.90;;;;;;5114088;28;20043;-79
2022/06/24 09:30:15;;;;;;;9.82;8.27;;;20.70;99.90;;;;;;5113528;28;20489;-78
2022/06/24 09:32:55;;;;;;;9.23;8.15;;;20.70;99.90;;;;;;5097380;28;20028;-79
2022/06/24 09:35:24;;;;;;;10.05;8.52;;;20.60;99.90;;;;;;5095970;28;20541;-79
2022/06/24 09:37:51;;;;;;;12.20;7.95;;;20.60;99.90;;;;;;5113232;28;20047;-78
2022/06/24 09:40:25;;;;;;;9.38;8.30;;;20.70;99.90;;;;;;5113197;28;20169;-78
2022/06/24 09:42:53;;;;;;;9.73;8.20;;;20.70;99.90;;;;;;5112945;28;20122;-78
2022/06/24 09:45:19;;;;;;;10.80;8.00;;;20.50;99.90;;;;;;5112549;28;20516;-78
2022/06/24 09:47:49;;;;;;;12.20;8.63;;;20.60;99.90;;;;;;5113704;28;20079;-79
2022/06/24 09:50:16;;;;;;;9.63;8.43;;;20.40;99.90;;;;;;5113311;28;20039;-78
2022/06/24 09:52:42;;;;;;;10.20;7.60;;;20.40;99.90;;;;;;5113313;28;20042;-78
2022/06/24 09:55:09;;;;;;;9.23;7.82;;;20.40;99.90;;;;;;5095842;28;20046;-78
2022/06/24 09:57:36;;;;;;;9.60;8.13;;;20.30;99.90;;;;;;5113314;28;20054;-79
2022/06/24 10:02:49;;;;;;;9.88;8.90;;;20.50;99.90;;;;;;5113840;28;20039;-79
2022/06/24 10:05:18;;;;;;;8.80;7.90;;;20.60;99.90;;;;;;5112687;28;20408;-79
2022/06/24 10:07:46;;;;;;;8.82;7.57;;;20.70;99.90;;;;;;5114457;28;20503;-78
2022/06/24 10:10:14;;;;;;;8.70;7.90;;;20.50;99.90;;;;;;5095445;28;20039;-78
2022/06/24 10:12:46;;;;;;;8.00;6.97;;;20.70;99.90;;;;;;5114574;28;20047;-78
2022/06/24 10:15:14;;;;;;;7.23;6.13;;;20.50;99.90;;;;;;5113928;28;20479;-78
2022/06/24 10:17:42;;;;;;;8.43;6.10;;;20.50;99.90;;;;;;5113133;28;20325;-79
2022/06/24 10:20:11;;;;;;;11.88;7.00;;;20.40;99.90;;;;;;5112739;28;20126;-78
2022/06/24 10:22:50;;;;;;;6.85;6.15;;;20.40;99.90;;;;;;5112555;28;20055;-78
2022/06/24 10:25:41;;;;;;;9.55;6.85;;;20.40;99.90;;;;;;5111926;28;20075;-78
2022/06/24 10:28:07;;;;;;;9.02;7.55;;;20.20;99.90;;;;;;5095158;28;20047;-78
2022/06/24 10:30:53;;;;;;;9.30;7.20;;;20.00;99.90;;;;;;5112100;28;20085;-78
2022/06/24 10:33:25;;;;;;;12.18;7.45;;;20.20;99.90;;;;;;5112307;28;20053;-78
2022/06/24 10:36:04;;;;;;;9.55;7.80;;;19.90;99.90;;;;;;5112250;28;20127;-77
2022/06/24 10:38:39;;;;;;;11.82;7.45;;;19.90;99.90;;;;;;5112274;28;20047;-77
2022/06/24 10:41:06;;;;;;;10.93;7.40;;;20.10;99.90;;;;;;5113187;28;20050;-76
2022/06/24 10:43:34;;;;;;;15.30;8.57;;;20.00;99.90;;;;;;5111857;28;20056;-77
2022/06/24 10:46:11;;;;;;;10.38;8.52;;;19.90;99.90;;;;;;5113007;28;20079;-77
2022/06/24 10:48:43;;;;;;;9.70;7.45;;;19.70;99.90;;;;;;5111743;28;20039;-77
2022/06/24 10:51:21;;;;;;;8.98;8.05;;;19.70;99.90;;;;;;5111731;28;20035;-77
2022/06/24 10:54:09;;;;;;;11.40;8.38;;;19.60;99.90;;;;;;5112779;28;20087;-77
2022/06/24 10:56:45;;;;;;;11.25;8.95;;;19.70;99.90;;;;;;5112816;28;20114;-77
2022/06/24 10:59:16;;;;;;;14.77;8.55;;;19.50;99.90;;;;;;5111634;28;20048;-77
2022/06/24 11:01:44;;;;;;;16.40;9.38;;;19.50;99.90;;;;;;5111745;28;20500;-77
2022/06/24 11:04:21;;;;;;;13.40;8.73;;;19.40;99.90;;;;;;5111314;28;20121;-77
2022/06/24 11:07:06;;;;;;;13.02;8.23;;;19.30;99.90;;;;;;5112405;28;20443;-77
2022/06/24 11:09:32;;;;;;;11.50;7.55;;;19.20;99.90;;;;;;5094449;28;20043;-77
2022/06/24 11:11:58;;;;;;;10.20;7.20;;;19.20;99.90;;;;;;5111404;28;20118;-77
2022/06/24 11:14:26;;;;;;;12.18;6.80;;;19.10;99.90;;;;;;5112457;28;20043;-77
2022/06/24 11:16:52;;;;;;;11.32;6.28;;;19.00;99.90;;;;;;5110966;28;20122;-77
2022/06/24 11:19:18;;;;;;;10.23;5.72;;;19.00;99.90;;;;;;5112681;28;20127;-77
2022/06/24 11:21:51;;;;;;;8.75;5.30;;;19.00;99.90;;;;;;5111732;28;20118;-79
2022/06/24 11:24:20;;;;;;;9.17;5.70;;;18.80;99.90;;;;;;5112736;28;20050;-77
2022/06/24 11:27:05;;;;;;;8.27;5.22;;;19.00;99.90;;;;;;5099634;28;20032;-76
2022/06/24 11:29:50;;;;;;;5.93;5.13;;;18.70;99.90;;;;;;5093358;28;20044;-77
2022/06/24 11:32:16;;;;;;;7.75;5.05;;;18.80;99.90;;;;;;5090820;28;20043;-77
2022/06/24 11:34:44;;;;;;;7.65;4.82;;;18.80;99.90;;;;;;5074137;28;20567;-77
2022/06/24 11:37:10;;;;;;;7.28;4.82;;;18.70;99.90;;;;;;5090505;28;20067;-77
2022/06/24 11:39:35;;;;;;;7.97;5.05;;;18.80;99.90;;;;;;5090906;28;20166;-77
2022/06/24 11:42:01;;;;;;;4.65;3.58;;;18.60;99.90;;;;;;5092146;28;20067;-76
2022/06/24 11:44:35;;;;;;;5.13;3.78;;;18.60;99.90;;;;;;5089908;28;20062;-76
2022/06/24 11:47:01;;;;;;;5.93;3.80;;;18.70;99.90;;;;;;5090451;28;20558;-76
2022/06/24 11:49:29;;;;;;;3.63;3.13;;;18.70;99.90;;;;;;5074185;28;20041;-78
2022/06/24 11:51:55;;;;;;;4.30;3.08;;;18.50;99.90;;;;;;5073752;28;20074;-77
2022/06/24 11:54:27;;;;;;;4.47;3.03;;;18.60;99.90;;;;;;5090488;28;20075;-77
2022/06/24 11:56:53;;;;;;;3.50;3.05;;;18.60;99.90;;;;;;5090322;28;20040;-77
2022/06/24 11:59:23;;;;;;;5.65;3.30;;;18.50;99.90;;;;;;5073812;28;20055;-77
2022/06/24 12:01:50;;;;;;;5.18;3.20;;;18.60;99.90;;;;;;5100459;28;20497;-76
2022/06/24 12:04:16;;;;;;;3.25;2.92;;;18.50;99.90;;;;;;5107661;28;20412;-77
2022/06/24 12:06:44;;;;;;;4.90;3.40;;;18.50;99.90;;;;;;5093867;28;20040;-76
2022/06/24 12:09:10;;;;;;;4.40;3.65;;;18.70;99.90;;;;;;5109003;28;20097;-76
2022/06/24 12:11:46;;;;;;;4.50;3.63;;;18.90;99.90;;;;;;5095030;28;20047;-76
2022/06/24 12:14:16;;;;;;;4.35;3.67;;;18.90;99.90;;;;;;5091879;28;20081;-76
2022/06/24 12:17:02;;;;;;;5.70;4.40;;;18.90;99.90;;;;;;5091666;28;20044;-77
2022/06/24 12:19:30;;;;;;;4.43;3.55;;;19.00;99.90;;;;;;5090768;28;20071;-77
2022/06/24 12:22:14;;;;;;;4.68;4.28;;;19.10;99.90;;;;;;5091751;28;20039;-77
2022/06/24 12:24:40;;;;;;;5.07;3.15;;;19.00;99.90;;;;;;5089962;28;20044;-77
2022/06/24 12:27:07;;;;;;;4.75;3.63;;;19.10;99.90;;;;;;5089144;28;20362;-77
2022/06/24 12:29:38;;;;;;;4.22;3.80;;;19.00;99.90;;;;;;5091856;28;20032;-77
2022/06/24 12:32:05;;;;;;;4.72;3.58;;;19.10;99.90;;;;;;5111975;28;20477;-77
2022/06/24 12:34:36;;;;;;;6.25;4.28;;;19.10;99.90;;;;;;5109836;28;20032;-77
2022/06/24 12:37:05;;;;;;;6.88;4.32;;;19.20;99.90;;;;;;5109363;28;20032;-77
2022/06/24 12:39:42;;;;;;;6.28;4.68;;;19.40;99.90;;;;;;5109822;28;20393;-77
2022/06/24 12:42:12;;;;;;;6.05;4.68;;;19.20;99.90;;;;;;5114678;28;20044;-76
2022/06/24 12:44:51;;;;;;;6.93;5.07;;;19.40;99.90;;;;;;5104784;28;20048;-77
2022/06/24 12:52:57;;;;;;;6.60;4.63;;;19.60;99.90;;;;;;5099076;28;20497;-77
2022/06/24 12:55:23;;;;;;;5.82;5.05;;;19.60;99.90;;;;;;5083749;28;20047;-76
2022/06/24 12:57:49;;;;;;;6.93;5.50;;;19.50;99.90;;;;;;5111940;28;20047;-77
2022/06/24 13:00:16;;;;;;;7.15;5.15;;;19.60;99.90;;;;;;5110493;28;20042;-76